createdAt,value
2019-04-16T00:01:57.544Z,10.68
2019-04-16T00:04:53.649Z,10.38
2019-04-16T00:07:38.936Z,9.85
2019-04-16T00:10:14.809Z,10.32
2019-04-16T00:13:05.378Z,9.58
2019-04-16T00:15:35.706Z,10.30
2019-04-16T00:18:06.187Z,10.53
2019-04-16T00:20:39.975Z,10.25
2019-04-16T00:23:17.240Z,10.00
2019-04-16T00:25:47.868Z,9.85
2019-04-16T00:28:16.610Z,10.63
2019-04-16T00:30:45.363Z,9.98
2019-04-16T00:33:14.074Z,9.65
2019-04-16T00:35:46.457Z,9.78
2019-04-16T00:38:13.848Z,10.43
2019-04-16T00:40:43.981Z,9.48
2019-04-16T00:43:13.896Z,10.45
2019-04-16T00:45:43.828Z,10.65
2019-04-16T00:48:12.755Z,10.80
2019-04-16T00:50:41.817Z,10.70
2019-04-16T00:53:10.784Z,10.25
2019-04-16T00:55:42.328Z,10.38
2019-04-16T00:58:19.446Z,10.23
2019-04-16T01:00:50.971Z,11.38
2019-04-16T01:03:19.531Z,10.78
2019-04-16T01:05:49.488Z,10.43
2019-04-16T01:08:18.140Z,10.23
2019-04-16T01:10:48.870Z,9.75
2019-04-16T01:13:21.731Z,10.53
2019-04-16T01:15:51.193Z,11.38
2019-04-16T01:18:19.739Z,10.23
2019-04-16T01:20:49.061Z,10.98
2019-04-16T01:23:18.487Z,10.70
2019-04-16T01:25:47.121Z,9.98
2019-04-16T01:28:20.430Z,11.33
2019-04-16T01:31:08.789Z,10.63
2019-04-16T01:34:07.175Z,9.93
2019-04-16T01:36:47.944Z,10.20
2019-04-16T01:39:18.479Z,10.90
2019-04-16T01:41:50.327Z,10.55
2019-04-16T01:44:18.880Z,11.60
2019-04-16T01:46:47.450Z,10.63
2019-04-16T01:49:19.219Z,11.10
2019-04-16T01:51:48.200Z,10.55
2019-04-16T01:54:16.821Z,10.45
2019-04-16T01:56:47.378Z,10.48
2019-04-16T01:59:15.925Z,10.70
2019-04-16T02:01:44.497Z,10.68
2019-04-16T02:04:19.515Z,10.53
2019-04-16T02:06:45.028Z,10.50
2019-04-16T02:09:22.251Z,11.00
2019-04-16T02:11:44.490Z,11.60
2019-04-16T02:14:14.563Z,10.85
2019-04-16T02:16:43.364Z,11.48
2019-04-16T02:19:12.374Z,10.90
2019-04-16T02:21:42.071Z,11.55
2019-04-16T02:24:11.099Z,10.55
2019-04-16T02:26:39.843Z,11.30
2019-04-16T02:29:09.975Z,10.43
2019-04-16T02:31:38.721Z,11.03
2019-04-16T02:34:07.808Z,10.60
2019-04-16T02:36:36.996Z,11.28
2019-04-16T02:39:07.280Z,11.78
2019-04-16T02:41:35.881Z,11.35
2019-04-16T02:44:04.717Z,10.68
2019-04-16T02:46:34.788Z,11.60
2019-04-16T02:49:03.504Z,11.73
2019-04-16T02:51:41.571Z,11.78
2019-04-16T02:54:34.581Z,12.10
2019-04-16T02:57:25.757Z,10.82
2019-04-16T02:59:50.240Z,10.68
2019-04-16T03:02:43.752Z,11.55
2019-04-16T03:05:34.403Z,10.65
2019-04-16T03:08:04.605Z,11.38
2019-04-16T03:10:34.643Z,11.22
2019-04-16T03:13:05.442Z,11.45
2019-04-16T03:15:53.304Z,11.70
2019-04-16T03:18:26.474Z,11.57
2019-04-16T03:20:55.639Z,12.53
2019-04-16T03:23:25.713Z,12.37
2019-04-16T03:25:54.409Z,11.48
2019-04-16T03:28:27.334Z,11.60
2019-04-16T03:30:54.390Z,11.40
2019-04-16T03:33:25.326Z,11.40
2019-04-16T03:35:57.793Z,12.23
2019-04-16T03:38:25.836Z,10.95
2019-04-16T03:40:56.095Z,10.95
2019-04-16T03:43:25.461Z,11.80
2019-04-16T03:45:54.020Z,11.73
2019-04-16T03:48:23.445Z,12.20
2019-04-16T03:50:52.911Z,11.85
2019-04-16T03:53:21.844Z,12.00
2019-04-16T03:55:57.889Z,12.18
2019-04-16T03:58:22.824Z,12.18
2019-04-16T04:00:51.549Z,12.85
2019-04-16T04:03:20.450Z,12.60
2019-04-16T04:05:55.905Z,11.53
2019-04-16T04:08:25.008Z,12.45
2019-04-16T04:10:56.775Z,11.80
2019-04-16T04:13:25.324Z,13.62
2019-04-16T04:15:55.146Z,11.97
2019-04-16T04:18:24.037Z,12.58
2019-04-16T04:20:53.110Z,11.45
2019-04-16T04:23:25.511Z,11.55
2019-04-16T04:25:53.538Z,12.85
2019-04-16T04:28:23.832Z,12.23
2019-04-16T04:30:52.785Z,12.45
2019-04-16T04:33:42.763Z,13.50
2019-04-16T04:36:10.516Z,12.93
2019-04-16T04:38:39.558Z,12.82
2019-04-16T04:41:08.604Z,12.80
2019-04-16T04:43:38.904Z,13.08
2019-04-16T04:46:12.535Z,12.50
2019-04-16T04:48:40.022Z,12.98
2019-04-16T04:51:09.128Z,12.00
2019-04-16T04:53:37.752Z,11.35
2019-04-16T04:56:06.474Z,11.28
2019-04-16T04:58:35.044Z,11.70
2019-04-16T05:01:03.667Z,11.50
2019-04-16T05:03:52.791Z,11.18
2019-04-16T05:06:27.858Z,11.78
2019-04-16T05:08:57.596Z,11.20
2019-04-16T05:11:25.715Z,11.57
2019-04-16T05:13:56.439Z,10.80
2019-04-16T05:16:25.712Z,10.35
2019-04-16T05:18:56.116Z,11.68
2019-04-16T05:21:26.729Z,10.48
2019-04-16T05:23:57.504Z,11.05
2019-04-16T05:26:26.460Z,12.28
2019-04-16T05:28:56.840Z,11.65
2019-04-16T05:31:31.094Z,11.95
2019-04-16T05:34:02.313Z,11.63
2019-04-16T05:36:32.913Z,11.97
2019-04-16T05:39:03.643Z,11.50
2019-04-16T05:41:32.296Z,13.22
2019-04-16T05:44:02.115Z,13.45
2019-04-16T05:46:30.753Z,15.10
2019-04-16T05:48:59.706Z,15.20
2019-04-16T05:51:31.370Z,12.43
2019-04-16T05:54:01.474Z,11.80
2019-04-16T05:56:38.323Z,12.25
2019-04-16T05:59:06.888Z,14.70
2019-04-16T06:01:49.218Z,12.13
2019-04-16T06:04:18.142Z,12.58
2019-04-16T06:06:48.743Z,13.10
2019-04-16T06:09:17.655Z,11.38
2019-04-16T06:11:47.561Z,10.45
2019-04-16T06:14:31.219Z,11.80
2019-04-16T06:17:19.213Z,11.20
2019-04-16T06:20:03.411Z,11.90
2019-04-16T06:22:53.970Z,12.07
2019-04-16T06:25:28.463Z,10.98
2019-04-16T06:28:22.024Z,10.50
2019-04-16T06:31:05.077Z,10.43
2019-04-16T06:33:41.405Z,10.48
2019-04-16T06:36:25.678Z,9.28
2019-04-16T06:39:18.158Z,9.58
2019-04-16T06:42:02.556Z,10.13
2019-04-16T06:44:34.979Z,10.23
2019-04-16T06:47:23.697Z,10.50
2019-04-16T06:50:12.924Z,9.43
2019-04-16T06:53:01.116Z,10.25
2019-04-16T06:55:42.794Z,9.38
2019-04-16T06:58:18.851Z,10.32
2019-04-16T07:39:39.759Z,10.15
2019-04-16T07:42:15.710Z,9.53
2019-04-16T07:45:00.459Z,10.05
2019-04-16T07:47:53.690Z,9.93
2019-04-16T07:50:35.822Z,10.05
2019-04-16T07:53:14.293Z,9.40
2019-04-16T07:55:50.823Z,10.08
2019-04-16T07:58:19.975Z,10.43
2019-04-16T08:00:50.741Z,10.38
2019-04-16T08:03:23.634Z,9.58
2019-04-16T08:05:52.764Z,9.65
2019-04-16T08:08:24.608Z,9.58
2019-04-16T08:10:54.576Z,9.48
2019-04-16T08:13:33.363Z,9.68
2019-04-16T08:15:58.684Z,10.43
2019-04-16T08:18:31.982Z,10.48
2019-04-16T08:21:10.206Z,9.23
2019-04-16T08:26:13.944Z,9.75
2019-04-16T08:28:42.581Z,10.60
2019-04-16T08:31:16.002Z,10.18
2019-04-16T08:33:44.896Z,10.08
2019-04-16T08:36:15.231Z,10.45
2019-04-16T08:38:43.953Z,10.43
2019-04-16T08:41:13.380Z,11.08
2019-04-16T08:43:42.006Z,9.45
2019-04-16T08:46:11.568Z,10.90
2019-04-16T08:48:41.217Z,10.78
2019-04-16T08:51:10.092Z,11.03
2019-04-16T08:53:38.818Z,11.00
2019-04-16T08:56:07.386Z,10.32
2019-04-16T08:58:38.399Z,10.43
2019-04-16T09:01:08.612Z,11.30
2019-04-16T09:03:39.356Z,10.48
2019-04-16T09:06:13.013Z,10.40
2019-04-16T09:08:52.822Z,10.50
2019-04-16T09:11:23.415Z,10.55
2019-04-16T09:13:53.353Z,10.85
2019-04-16T09:16:22.448Z,9.83
2019-04-16T09:18:59.022Z,11.28
2019-04-16T09:21:28.185Z,10.85
2019-04-16T09:24:14.345Z,11.05
2019-04-16T09:26:52.738Z,10.18
2019-04-16T09:29:45.358Z,10.25
2019-04-16T09:32:33.218Z,10.40
2019-04-16T09:35:18.298Z,10.35
2019-04-16T09:38:13.376Z,11.05
2019-04-16T09:40:57.688Z,11.18
2019-04-16T09:43:28.402Z,11.20
2019-04-16T09:46:09.678Z,11.38
2019-04-16T09:48:27.570Z,11.50
2019-04-16T09:50:57.836Z,11.65
2019-04-16T09:53:33.429Z,11.68
2019-04-16T09:56:01.097Z,10.82
2019-04-16T09:58:29.647Z,11.43
2019-04-16T10:01:04.423Z,11.68
2019-04-16T10:03:36.972Z,11.28
2019-04-16T10:06:05.972Z,11.68
2019-04-16T10:08:34.618Z,11.70
2019-04-16T10:11:06.041Z,11.25
2019-04-16T10:13:36.089Z,10.98
2019-04-16T10:16:07.137Z,11.53
2019-04-16T10:18:36.353Z,11.78
2019-04-16T10:21:06.198Z,11.97
2019-04-16T10:24:00.875Z,11.57
2019-04-16T10:26:30.127Z,11.63
2019-04-16T10:29:00.025Z,11.73
2019-04-16T10:31:28.575Z,12.10
2019-04-16T10:33:57.131Z,11.40
2019-04-16T10:36:25.887Z,13.15
2019-04-16T10:39:00.950Z,11.83
2019-04-16T10:41:44.340Z,12.05
2019-04-16T10:44:37.777Z,11.45
2019-04-16T10:47:31.591Z,12.70
2019-04-16T10:50:22.206Z,12.33
2019-04-16T10:53:15.664Z,13.03
2019-04-16T10:56:02.029Z,12.57
2019-04-16T10:58:48.374Z,11.73
2019-04-16T11:01:42.223Z,11.93
2019-04-16T11:04:43.970Z,12.50
2019-04-16T11:07:15.978Z,13.13
2019-04-16T11:09:44.586Z,13.90
2019-04-16T11:12:13.156Z,13.10
2019-04-16T11:14:41.661Z,13.50
2019-04-16T11:17:10.416Z,12.98
2019-04-16T11:19:38.974Z,13.25
2019-04-16T11:22:07.493Z,13.10
2019-04-16T11:24:37.636Z,12.98
2019-04-16T11:27:06.490Z,12.82
2019-04-16T11:29:35.114Z,12.82
2019-04-16T11:32:03.709Z,12.40
2019-04-16T11:34:32.625Z,13.25
2019-04-16T11:37:07.488Z,12.37
2019-04-16T11:39:31.614Z,13.00
2019-04-16T11:42:00.361Z,13.08
2019-04-16T11:44:28.958Z,13.68
2019-04-16T11:46:57.581Z,13.28
2019-04-16T11:49:26.244Z,12.73
2019-04-16T11:51:54.810Z,13.38
2019-04-16T11:54:24.778Z,13.88
2019-04-16T11:56:55.568Z,12.47
2019-04-16T11:59:23.955Z,13.78
2019-04-16T12:02:03.194Z,12.75
2019-04-16T12:04:57.193Z,12.40
2019-04-16T12:07:40.745Z,12.88
2019-04-16T12:10:29.393Z,13.18
2019-04-16T12:13:14.856Z,13.35
2019-04-16T12:15:59.538Z,13.80
2019-04-16T12:18:58.147Z,13.90
2019-04-16T12:21:48.556Z,12.47
2019-04-16T12:25:07.589Z,13.88
2019-04-16T12:27:51.880Z,14.18
2019-04-16T12:30:38.840Z,14.43
2019-04-16T12:33:17.539Z,14.07
2019-04-16T12:36:13.242Z,14.40
2019-04-16T12:39:05.658Z,14.40
2019-04-16T12:41:59.906Z,14.45
2019-04-16T12:44:45.538Z,14.60
2019-04-16T12:47:41.004Z,13.18
2019-04-16T12:50:51.799Z,14.33
2019-04-16T12:53:35.880Z,13.43
2019-04-16T12:56:26.557Z,14.33
2019-04-16T12:59:03.224Z,14.95
2019-04-16T13:01:50.809Z,13.32
2019-04-16T13:04:27.725Z,13.40
2019-04-16T13:07:03.162Z,14.65
2019-04-16T13:10:00.401Z,13.68
2019-04-16T13:12:37.643Z,14.35
2019-04-16T13:15:24.357Z,13.68
2019-04-16T13:18:06.215Z,13.90
2019-04-16T13:20:57.250Z,13.38
2019-04-16T13:23:42.204Z,13.62
2019-04-16T13:26:24.824Z,13.62
2019-04-16T13:28:55.603Z,14.65
2019-04-16T13:31:25.882Z,14.10
2019-04-16T13:34:00.072Z,13.58
2019-04-16T13:36:30.461Z,14.50
2019-04-16T13:39:18.066Z,14.43
2019-04-16T13:41:46.651Z,15.08
2019-04-16T13:44:17.243Z,14.10
2019-04-16T13:46:47.313Z,14.05
2019-04-16T13:49:24.550Z,14.85
2019-04-16T13:51:57.430Z,15.95
2019-04-16T13:54:34.395Z,15.15
2019-04-16T13:57:06.339Z,15.45
2019-04-16T14:00:02.982Z,16.15
2019-04-16T14:02:51.082Z,14.78
2019-04-16T14:05:20.675Z,14.03
2019-04-16T14:07:49.712Z,16.50
2019-04-16T14:10:18.288Z,15.43
2019-04-16T14:12:48.201Z,14.45
2019-04-16T14:15:31.142Z,14.03
2019-04-16T14:17:52.981Z,13.88
2019-04-16T14:20:18.877Z,15.13
2019-04-16T14:22:53.279Z,14.60
2019-04-16T14:25:21.395Z,14.80
2019-04-16T14:27:50.264Z,15.35
2019-04-16T14:30:22.277Z,14.20
2019-04-16T14:32:51.148Z,14.07
2019-04-16T14:35:32.834Z,14.70
2019-04-16T14:40:22.494Z,14.98
2019-04-16T14:42:56.253Z,14.70
2019-04-16T14:45:25.044Z,15.53
2019-04-16T14:47:54.598Z,14.30
2019-04-16T14:50:24.463Z,15.65
2019-04-16T14:52:53.161Z,15.32
2019-04-16T14:55:59.256Z,16.00
2019-04-16T14:58:50.818Z,13.30
2019-04-16T15:01:50.211Z,14.05
2019-04-16T15:04:43.195Z,14.43
2019-04-16T15:07:31.511Z,16.77
2019-04-16T15:10:18.995Z,15.63
2019-04-16T15:12:54.552Z,14.28
2019-04-16T15:15:26.982Z,15.63
2019-04-16T15:18:26.479Z,15.35
2019-04-16T15:21:10.147Z,14.85
2019-04-16T15:26:43.156Z,14.93
2019-04-16T15:29:16.964Z,14.18
2019-04-16T15:34:42.826Z,14.63
2019-04-16T15:37:25.736Z,14.83
2019-04-16T15:39:59.605Z,15.30
2019-04-16T15:42:41.336Z,18.77
2019-04-16T15:45:16.796Z,14.95
2019-04-16T15:48:03.566Z,15.40
2019-04-16T15:50:38.473Z,14.30
2019-04-16T15:53:12.265Z,13.93
2019-04-16T15:58:24.622Z,15.83
2019-04-16T16:01:21.173Z,15.88
2019-04-16T16:04:32.891Z,15.68
2019-04-16T16:07:08.725Z,14.03
2019-04-16T16:10:13.970Z,13.10
2019-04-16T16:15:10.558Z,14.40
2019-04-16T16:17:41.273Z,14.70
2019-04-16T16:20:11.402Z,15.18
2019-04-16T16:22:40.268Z,15.43
2019-04-16T16:25:09.370Z,14.30
2019-04-16T16:27:41.689Z,14.90
2019-04-16T16:30:08.572Z,14.70
2019-04-16T16:32:37.481Z,14.98
2019-04-16T16:35:09.518Z,15.98
2019-04-16T16:37:38.090Z,15.50
2019-04-16T16:40:07.251Z,15.38
2019-04-16T16:42:35.850Z,15.30
2019-04-16T16:45:04.758Z,16.17
2019-04-16T16:47:39.498Z,17.37
2019-04-16T16:50:10.324Z,17.92
2019-04-16T16:53:06.963Z,16.73
2019-04-16T16:55:39.064Z,16.00
2019-04-16T16:58:34.541Z,15.13
2019-04-16T17:01:19.784Z,17.60
2019-04-16T17:03:59.652Z,18.10
2019-04-16T17:06:28.536Z,17.50
2019-04-16T17:08:57.129Z,16.77
2019-04-16T17:11:26.094Z,18.75
2019-04-16T17:13:54.767Z,17.73
2019-04-16T17:16:23.269Z,17.50
2019-04-16T17:18:51.844Z,17.62
2019-04-16T17:21:20.392Z,16.90
2019-04-16T17:23:48.991Z,18.30
2019-04-16T17:26:17.581Z,17.30
2019-04-16T17:28:46.171Z,18.00
2019-04-16T17:31:15.144Z,18.12
2019-04-16T17:33:43.713Z,18.60
2019-04-16T17:36:12.450Z,18.23
2019-04-16T17:38:41.035Z,17.87
2019-04-16T17:41:13.486Z,17.17
2019-04-16T17:44:03.117Z,16.82
2019-04-16T17:46:47.518Z,17.40
2019-04-16T17:49:38.287Z,17.52
2019-04-16T17:52:40.922Z,17.98
2019-04-16T17:55:22.562Z,18.12
2019-04-16T17:58:10.290Z,18.35
2019-04-16T18:00:56.313Z,18.20
2019-04-16T18:03:45.092Z,17.85
2019-04-16T18:06:20.159Z,17.37
2019-04-16T18:09:06.663Z,18.15
2019-04-16T18:11:54.278Z,17.20
2019-04-16T18:14:47.935Z,18.30
2019-04-16T18:17:26.968Z,17.70
2019-04-16T18:20:05.410Z,16.93
2019-04-16T18:22:41.966Z,16.50
2019-04-16T18:25:22.969Z,18.45
2019-04-16T18:27:57.488Z,19.70
2019-04-16T18:30:45.078Z,18.62
2019-04-16T18:33:35.317Z,18.17
2019-04-16T18:36:19.212Z,19.15
2019-04-16T18:39:08.297Z,19.40
2019-04-16T18:41:53.394Z,20.20
2019-04-16T18:44:44.420Z,19.17
2019-04-16T18:47:30.793Z,20.88
2019-04-16T18:50:05.390Z,23.20
2019-04-16T18:52:36.646Z,22.50
2019-04-16T18:55:04.267Z,21.95
2019-04-16T18:57:35.520Z,22.07
2019-04-16T19:00:08.496Z,20.80
2019-04-16T19:02:41.901Z,20.65
2019-04-16T19:05:07.524Z,22.27
2019-04-16T19:07:42.229Z,20.23
2019-04-16T19:10:10.886Z,20.50
2019-04-16T19:12:39.861Z,18.67
2019-04-16T19:15:08.864Z,17.85
2019-04-16T19:17:41.011Z,19.35
2019-04-16T19:20:09.568Z,18.98
2019-04-16T19:22:38.130Z,18.98
2019-04-16T19:25:09.174Z,18.02
2019-04-16T19:27:37.417Z,18.70
2019-04-16T19:30:07.100Z,19.00
2019-04-16T19:32:35.852Z,17.95
2019-04-16T19:35:09.898Z,17.12
2019-04-16T19:37:35.119Z,18.65
2019-04-16T19:40:06.880Z,19.73
2019-04-16T19:42:35.450Z,18.12
2019-04-16T19:45:04.066Z,17.67
2019-04-16T19:47:35.355Z,18.10
2019-04-16T19:50:03.310Z,18.80
2019-04-16T19:52:32.116Z,17.82
2019-04-16T19:55:00.704Z,17.35
2019-04-16T19:57:29.698Z,17.90
2019-04-16T19:59:58.462Z,18.35
2019-04-16T20:02:27.019Z,17.17
2019-04-16T20:04:55.602Z,18.15
2019-04-16T20:07:24.184Z,17.32
2019-04-16T20:09:53.272Z,17.17
2019-04-16T20:12:21.970Z,18.02
2019-04-16T20:14:50.637Z,16.40
2019-04-16T20:17:19.195Z,17.45
2019-04-16T20:20:00.554Z,18.60
2019-04-16T20:22:30.577Z,17.57
2019-04-16T20:24:59.389Z,18.52
2019-04-16T20:27:27.980Z,17.85
2019-04-16T20:29:56.731Z,17.60
2019-04-16T20:32:27.631Z,16.45
2019-04-16T20:34:56.194Z,17.85
2019-04-16T20:37:24.790Z,17.50
2019-04-16T20:39:53.639Z,17.15
2019-04-16T20:42:22.549Z,17.70
2019-04-16T20:44:51.540Z,17.77
2019-04-16T20:47:20.103Z,17.70
2019-04-16T20:49:49.141Z,16.52
2019-04-16T20:52:20.140Z,15.68
2019-04-16T20:54:52.187Z,16.37
2019-04-16T20:57:25.300Z,17.95
2019-04-16T20:59:51.483Z,17.20
2019-04-16T21:02:20.822Z,17.60
2019-04-16T21:04:49.423Z,17.12
2019-04-16T21:07:18.014Z,17.52
2019-04-16T21:09:49.708Z,17.62
2019-04-16T21:12:20.475Z,17.80
2019-04-16T21:14:50.893Z,16.27
2019-04-16T21:17:19.905Z,16.62
2019-04-16T21:19:48.551Z,17.85
2019-04-16T21:22:18.941Z,16.42
2019-04-16T21:24:48.293Z,17.67
2019-04-16T21:27:16.978Z,15.88
2019-04-16T21:29:46.215Z,16.65
2019-04-16T21:32:33.891Z,15.83
2019-04-16T21:35:09.670Z,15.23
2019-04-16T21:37:55.923Z,15.68
2019-04-16T21:40:29.043Z,16.23
2019-04-16T21:43:06.281Z,15.70
2019-04-16T21:45:31.900Z,16.10
2019-04-16T21:48:02.710Z,15.58
2019-04-16T21:50:31.368Z,15.53
2019-04-16T21:53:01.708Z,16.05
2019-04-16T21:55:32.779Z,16.12
2019-04-16T21:58:00.852Z,15.70
2019-04-16T22:01:04.249Z,16.23
2019-04-16T22:03:31.795Z,16.00
2019-04-16T22:06:02.631Z,16.75
2019-04-16T22:08:31.594Z,16.80
2019-04-16T22:11:00.180Z,15.85
2019-04-16T22:13:29.058Z,17.62
2019-04-16T22:15:58.702Z,16.30
2019-04-16T22:18:29.050Z,15.72
2019-04-16T22:20:57.754Z,15.53
2019-04-16T22:23:29.442Z,15.50
2019-04-16T22:26:01.737Z,16.32
2019-04-16T22:28:28.984Z,16.42
2019-04-16T22:30:57.597Z,14.95
2019-04-16T22:33:26.642Z,14.55
2019-04-16T22:35:55.216Z,15.45
2019-04-16T22:38:23.772Z,14.40
2019-04-16T22:40:57.242Z,14.90
2019-04-16T22:43:43.638Z,14.93
2019-04-16T22:46:20.193Z,13.60
2019-04-16T22:48:56.539Z,15.63
2019-04-16T22:51:25.811Z,14.63
2019-04-16T22:53:54.844Z,14.50
2019-04-16T22:56:31.641Z,14.23
2019-04-16T22:59:00.373Z,13.13
2019-04-16T23:01:30.240Z,14.25
2019-04-16T23:03:58.976Z,14.20
2019-04-16T23:06:27.602Z,15.08
2019-04-16T23:08:58.419Z,14.25
2019-04-16T23:11:26.974Z,14.43
2019-04-16T23:13:55.650Z,14.90
2019-04-16T23:16:25.584Z,15.53
2019-04-16T23:18:54.149Z,15.65
2019-04-16T23:21:22.848Z,13.68
2019-04-16T23:23:52.358Z,14.60
2019-04-16T23:26:21.063Z,14.73
2019-04-16T23:28:54.866Z,14.60
2019-04-16T23:31:25.589Z,15.03
2019-04-16T23:33:54.138Z,15.15
2019-04-16T23:36:22.722Z,13.65
2019-04-16T23:38:53.264Z,14.65
2019-04-16T23:41:21.828Z,14.03
2019-04-16T23:44:00.179Z,12.93
2019-04-16T23:46:55.045Z,14.53
2019-04-16T23:49:45.783Z,13.45
2019-04-16T23:52:23.152Z,13.70
2019-04-16T23:54:55.450Z,15.00
2019-04-16T23:57:53.664Z,12.88
